Time;durP1;ratioP1;P1;durP2;ratioP2;P2;SDS_P1;SDS_P2;PMS_P1;PMS_P2;Temp;Humidity;BMP_temperature;BMP_pressure;BME280_temperature;BME280_humidity;BME280_pressure;Samples;Min_cycle;Max_cycle;Signal;HPM_P1;HPM_P2
2021/11/16 16:54:05;;;;;;;17.83;16.30;;;6.80;99.90;;;;;;5088679;28;20606;-75
2021/11/16 16:56:34;;;;;;;19.20;17.43;;;6.80;99.90;;;;;;5088892;28;20485;-74
2021/11/16 16:59:10;;;;;;;21.60;19.70;;;7.10;99.90;;;;;;5088976;28;20485;-74
2021/11/16 17:01:37;;;;;;;18.97;17.27;;;7.30;99.90;;;;;;5088821;28;20943;-74
2021/11/16 17:04:04;;;;;;;19.20;17.60;;;7.40;99.90;;;;;;5088514;28;20450;-74
2021/11/16 17:06:33;;;;;;;19.43;17.73;;;7.60;99.90;;;;;;5087435;28;20454;-75
2021/11/16 17:09:00;;;;;;;18.27;16.90;;;7.70;99.90;;;;;;5088396;28;20979;-74
2021/11/16 17:11:28;;;;;;;19.50;17.87;;;7.80;99.90;;;;;;5088388;28;20442;-75
2021/11/16 17:13:57;;;;;;;19.43;17.83;;;7.90;99.90;;;;;;5088712;28;20486;-75
2021/11/16 17:16:24;;;;;;;19.90;18.10;;;7.80;99.90;;;;;;5088728;28;20449;-74
2021/11/16 17:18:55;;;;;;;18.33;16.73;;;7.90;99.90;;;;;;5088161;28;20461;-74
2021/11/16 17:21:21;;;;;;;20.57;18.77;;;8.00;99.90;;;;;;5088089;28;21053;-74
2021/11/16 17:23:48;;;;;;;19.13;17.53;;;8.00;99.90;;;;;;5088230;28;20486;-75
2021/11/16 17:26:15;;;;;;;18.87;17.27;;;8.00;99.90;;;;;;5088204;28;20532;-75
2021/11/16 17:28:44;;;;;;;21.60;19.70;;;8.00;99.90;;;;;;5088159;28;20451;-74
2021/11/16 17:31:11;;;;;;;19.73;17.70;;;7.90;99.90;;;;;;5088132;28;20482;-74
2021/11/16 17:33:39;;;;;;;22.13;20.07;;;7.90;99.90;;;;;;5088279;28;20474;-74
2021/11/16 17:36:06;;;;;;;23.33;21.33;;;8.00;99.90;;;;;;5088180;28;20454;-74
2021/11/16 17:38:33;;;;;;;22.67;20.47;;;7.90;99.90;;;;;;5087977;28;20454;-74
2021/11/16 17:41:00;;;;;;;22.23;20.07;;;7.90;99.90;;;;;;5088121;28;20452;-74
2021/11/16 17:43:27;;;;;;;19.47;17.53;;;7.80;99.90;;;;;;5087916;28;20486;-76
2021/11/16 17:45:55;;;;;;;22.10;19.80;;;7.90;99.90;;;;;;5076359;28;20558;-77
2021/11/16 17:48:22;;;;;;;22.23;20.07;;;7.90;99.90;;;;;;5086659;28;20458;-78
2021/11/16 17:50:49;;;;;;;19.70;18.00;;;7.90;99.90;;;;;;5088129;28;20450;-82
2021/11/16 17:53:16;;;;;;;20.40;18.60;;;7.90;99.90;;;;;;5087784;28;20834;-81
2021/11/16 17:55:42;;;;;;;21.40;19.60;;;8.00;99.90;;;;;;5087901;28;20445;-80
2021/11/16 17:58:10;;;;;;;19.87;18.07;;;8.00;99.90;;;;;;5087004;28;21131;-77
2021/11/16 18:00:39;;;;;;;20.07;18.07;;;8.00;99.90;;;;;;5087275;28;20458;-74
2021/11/16 18:03:07;;;;;;;22.43;19.80;;;8.10;99.90;;;;;;5086975;28;20496;-75
2021/11/16 18:05:46;;;;;;;19.47;17.97;;;8.00;99.90;;;;;;5072913;28;20497;-75
2021/11/16 18:08:16;;;;;;;20.03;18.53;;;7.90;99.90;;;;;;5073060;28;20458;-75
2021/11/16 18:10:46;;;;;;;21.73;19.77;;;7.90;99.90;;;;;;5073176;28;20508;-75
2021/11/16 18:13:12;;;;;;;20.30;18.70;;;7.90;99.90;;;;;;5072869;28;20447;-74
2021/11/16 18:15:40;;;;;;;20.40;18.70;;;8.00;99.90;;;;;;5072807;28;20938;-75
2021/11/16 18:18:08;;;;;;;21.33;19.10;;;8.10;99.90;;;;;;5072873;28;20481;-74
2021/11/16 18:20:36;;;;;;;20.17;18.47;;;8.00;99.90;;;;;;5072950;28;20447;-74
2021/11/16 18:23:03;;;;;;;18.23;16.83;;;8.00;99.90;;;;;;5072912;28;20487;-74
2021/11/16 18:25:30;;;;;;;20.97;18.97;;;8.10;99.90;;;;;;5072721;28;20451;-75
2021/11/16 18:27:58;;;;;;;19.43;18.07;;;8.10;99.90;;;;;;5073323;28;20447;-74
2021/11/16 18:30:32;;;;;;;19.30;17.50;;;8.20;99.90;;;;;;5073171;28;20474;-74
2021/11/16 18:32:59;;;;;;;19.57;17.97;;;8.20;99.90;;;;;;5073208;28;20760;-75
2021/11/16 18:35:28;;;;;;;20.00;18.20;;;8.10;99.90;;;;;;5073142;28;20458;-75
2021/11/16 18:37:56;;;;;;;19.57;17.87;;;8.00;99.90;;;;;;5073107;28;20496;-75
2021/11/16 18:40:27;;;;;;;18.80;17.13;;;8.20;99.90;;;;;;5073266;28;20547;-74
2021/11/16 18:43:00;;;;;;;19.30;17.90;;;8.30;99.90;;;;;;5073060;28;20486;-74
2021/11/16 18:45:30;;;;;;;18.40;16.90;;;8.30;99.90;;;;;;5073181;28;20444;-74
2021/11/16 18:48:01;;;;;;;17.00;15.90;;;8.40;99.90;;;;;;5072970;28;20971;-74
2021/11/16 18:50:29;;;;;;;19.20;17.50;;;8.50;99.90;;;;;;5073060;28;20447;-74
2021/11/16 18:52:56;;;;;;;17.40;15.60;;;8.40;99.90;;;;;;5072610;28;20482;-74
2021/11/16 18:55:34;;;;;;;17.43;15.93;;;8.50;99.90;;;;;;5072946;28;20469;-74
2021/11/16 18:58:02;;;;;;;19.67;17.80;;;8.50;99.90;;;;;;5072950;28;20818;-73
2021/11/16 19:00:30;;;;;;;20.70;19.10;;;8.30;99.90;;;;;;5072813;28;20458;-74
2021/11/16 19:02:57;;;;;;;18.80;17.20;;;8.40;99.90;;;;;;5072660;28;21036;-74
2021/11/16 19:05:24;;;;;;;18.63;16.90;;;8.30;99.90;;;;;;5072842;28;20456;-74
2021/11/16 19:07:52;;;;;;;19.33;17.93;;;8.40;99.90;;;;;;5072617;28;20451;-74
2021/11/16 19:10:19;;;;;;;17.63;16.37;;;8.50;99.90;;;;;;5072825;28;20466;-74
2021/11/16 19:12:46;;;;;;;18.87;17.20;;;8.50;99.90;;;;;;5072566;28;20451;-73
2021/11/16 19:15:13;;;;;;;19.20;17.60;;;8.40;99.90;;;;;;5071788;28;20478;-74
2021/11/16 19:17:41;;;;;;;18.33;17.03;;;8.30;99.90;;;;;;5072270;28;20450;-74
2021/11/16 19:20:10;;;;;;;18.70;17.10;;;8.30;99.90;;;;;;5072523;28;20538;-75
2021/11/16 19:22:37;;;;;;;18.70;17.20;;;8.30;99.90;;;;;;5072380;28;20494;-74
2021/11/16 19:25:13;;;;;;;19.30;17.53;;;8.30;99.90;;;;;;5072034;28;20808;-74
2021/11/16 19:27:44;;;;;;;18.70;17.00;;;8.30;99.90;;;;;;5071821;28;20457;-74
2021/11/16 19:30:13;;;;;;;19.00;17.60;;;8.20;99.90;;;;;;5071519;28;20521;-74
2021/11/16 19:32:40;;;;;;;19.40;17.73;;;8.20;99.90;;;;;;5071737;28;20436;-74
2021/11/16 19:35:12;;;;;;;20.27;18.37;;;8.20;99.90;;;;;;5071508;28;20453;-74
2021/11/16 19:37:42;;;;;;;19.67;18.17;;;8.20;99.90;;;;;;5071593;28;20458;-73
2021/11/16 19:40:13;;;;;;;18.43;17.00;;;8.30;99.90;;;;;;5071180;28;20565;-74
2021/11/16 19:42:40;;;;;;;18.47;17.07;;;8.20;99.90;;;;;;5071240;28;20458;-75
2021/11/16 19:45:10;;;;;;;19.63;17.63;;;8.20;99.90;;;;;;5071351;28;20450;-75
2021/11/16 19:47:38;;;;;;;18.50;17.03;;;8.20;99.90;;;;;;5071405;28;20451;-73
2021/11/16 19:50:08;;;;;;;17.73;16.33;;;8.10;99.90;;;;;;5071553;28;20823;-76
2021/11/16 19:52:38;;;;;;;18.20;16.60;;;8.20;99.90;;;;;;5071114;28;20494;-76
2021/11/16 19:55:05;;;;;;;19.30;17.83;;;8.20;99.90;;;;;;5071101;28;20504;-76
2021/11/16 19:57:33;;;;;;;19.57;17.87;;;8.20;99.90;;;;;;5071328;28;20466;-76
2021/11/16 20:00:00;;;;;;;18.70;17.20;;;8.30;99.90;;;;;;5071019;28;20455;-76
2021/11/16 20:02:27;;;;;;;18.40;17.07;;;8.20;99.90;;;;;;5071108;28;20470;-76
2021/11/16 20:04:54;;;;;;;19.20;17.60;;;8.20;99.90;;;;;;5071105;28;20475;-76
2021/11/16 20:07:21;;;;;;;18.80;17.40;;;8.30;99.90;;;;;;5070976;28;20454;-75
2021/11/16 20:09:48;;;;;;;19.00;17.40;;;8.30;99.90;;;;;;5070982;28;20455;-76
2021/11/16 20:12:18;;;;;;;18.20;16.90;;;8.30;99.90;;;;;;5071062;28;20458;-75
2021/11/16 20:14:47;;;;;;;18.77;17.27;;;8.40;99.90;;;;;;5070728;28;20451;-76
2021/11/16 20:17:16;;;;;;;17.90;16.60;;;8.30;99.90;;;;;;5071040;28;20490;-76
2021/11/16 20:19:44;;;;;;;17.50;16.20;;;8.40;99.90;;;;;;5070808;28;21025;-75
2021/11/16 20:22:11;;;;;;;17.47;16.17;;;8.50;99.90;;;;;;5070620;28;20497;-75
2021/11/16 20:24:38;;;;;;;18.63;17.00;;;8.40;99.90;;;;;;5070554;28;20486;-75
2021/11/16 20:27:06;;;;;;;20.23;18.60;;;8.40;99.90;;;;;;5070361;28;20451;-75
2021/11/16 20:29:35;;;;;;;18.77;17.20;;;8.50;99.90;;;;;;5070809;28;20516;-75
2021/11/16 20:32:08;;;;;;;17.80;16.40;;;8.40;99.90;;;;;;5070605;28;20506;-76
2021/11/16 20:34:43;;;;;;;17.13;15.83;;;8.30;99.90;;;;;;5070571;28;20463;-75
2021/11/16 20:37:10;;;;;;;17.73;16.23;;;8.40;99.90;;;;;;5070477;28;20493;-75
2021/11/16 20:39:42;;;;;;;17.73;16.20;;;8.40;99.90;;;;;;5070706;28;20451;-74
2021/11/16 20:42:32;;;;;;;18.93;17.20;;;8.20;99.90;;;;;;5070587;28;20562;-75
2021/11/16 21:01:51;;;;;;;18.13;16.83;;;8.50;99.90;;;;;;5033803;28;20420;-75
2021/11/16 21:04:19;;;;;;;18.23;16.60;;;8.50;99.90;;;;;;5059744;28;20812;-75
2021/11/16 21:06:46;;;;;;;18.40;16.83;;;8.60;99.90;;;;;;5060809;28;20447;-75
2021/11/16 21:09:14;;;;;;;19.73;18.23;;;8.60;99.90;;;;;;5060524;28;20436;-75
2021/11/16 21:11:45;;;;;;;19.90;18.37;;;8.60;99.90;;;;;;5060234;28;20444;-76
2021/11/16 21:14:12;;;;;;;19.67;17.90;;;8.60;99.90;;;;;;5059068;28;20863;-75
2021/11/16 21:16:38;;;;;;;19.23;17.60;;;8.40;99.90;;;;;;5059595;28;20842;-75
2021/11/16 21:19:05;;;;;;;17.43;16.33;;;8.30;99.90;;;;;;5060597;28;20977;-75
2021/11/16 21:21:33;;;;;;;18.53;17.27;;;8.30;99.90;;;;;;5058851;28;20444;-75
2021/11/16 21:24:00;;;;;;;20.80;19.00;;;8.40;99.90;;;;;;5059290;28;20486;-75
2021/11/16 21:26:27;;;;;;;19.33;17.50;;;8.40;99.90;;;;;;5060477;28;20431;-75
2021/11/16 21:28:54;;;;;;;19.60;18.00;;;8.40;99.90;;;;;;5058922;28;20452;-75
2021/11/16 21:31:24;;;;;;;19.33;17.73;;;8.40;99.90;;;;;;5059120;28;20524;-75
2021/11/16 21:33:51;;;;;;;19.87;18.17;;;8.50;99.90;;;;;;5058656;28;20547;-75
2021/11/16 21:36:17;;;;;;;18.47;17.00;;;8.40;99.90;;;;;;5059852;28;20458;-75
2021/11/16 21:38:46;;;;;;;18.23;16.67;;;8.40;99.90;;;;;;5060583;28;20450;-75
2021/11/16 21:41:14;;;;;;;18.20;16.80;;;8.40;99.90;;;;;;5064087;28;20930;-75
2021/11/16 21:43:41;;;;;;;18.20;16.80;;;8.50;99.90;;;;;;5063581;28;20997;-75
2021/11/16 21:46:09;;;;;;;17.37;16.13;;;8.40;99.90;;;;;;5061995;28;20444;-75
2021/11/16 21:48:36;;;;;;;16.90;15.50;;;8.20;99.90;;;;;;5059529;28;20466;-80
2021/11/16 21:51:05;;;;;;;17.60;16.10;;;8.20;99.90;;;;;;5058063;28;20488;-78
2021/11/16 21:53:32;;;;;;;15.60;14.50;;;8.10;99.90;;;;;;5065567;28;20463;-82
2021/11/16 21:56:03;;;;;;;17.97;16.43;;;8.10;99.90;;;;;;5084265;28;20442;-89
2021/11/16 21:58:30;;;;;;;15.67;14.67;;;8.10;99.90;;;;;;5078048;28;20439;-73
2021/11/16 22:00:57;;;;;;;15.97;14.97;;;8.20;99.90;;;;;;5066308;28;20482;-72
2021/11/16 22:03:23;;;;;;;15.77;14.67;;;8.30;99.90;;;;;;5060749;28;20475;-72
2021/11/16 22:05:50;;;;;;;15.30;14.20;;;8.40;99.90;;;;;;5061314;28;20444;-73
2021/11/16 22:08:22;;;;;;;15.63;14.57;;;8.40;99.90;;;;;;5062299;28;20820;-72
2021/11/16 22:13:18;;;;;;;15.87;14.77;;;8.50;99.90;;;;;;5061254;28;20433;-73
2021/11/16 22:15:48;;;;;;;17.10;15.80;;;8.30;99.90;;;;;;5061317;28;20516;-73
2021/11/16 22:18:16;;;;;;;17.67;16.30;;;8.30;99.90;;;;;;5060915;28;20502;-72
2021/11/16 22:20:43;;;;;;;16.50;15.20;;;8.20;99.90;;;;;;5061691;28;20451;-72
2021/11/16 22:23:10;;;;;;;20.87;16.17;;;8.20;99.90;;;;;;5062810;28;20454;-74
2021/11/16 22:25:37;;;;;;;16.83;15.53;;;8.20;99.90;;;;;;5061027;28;20467;-72
2021/11/16 22:28:04;;;;;;;17.33;16.10;;;8.20;99.90;;;;;;5061152;28;20968;-73
2021/11/16 22:30:33;;;;;;;17.73;16.20;;;8.30;99.90;;;;;;5062640;28;20459;-72
2021/11/16 22:33:07;;;;;;;19.13;17.57;;;8.30;99.90;;;;;;5061424;28;20938;-74
2021/11/16 22:35:34;;;;;;;19.37;17.77;;;8.30;99.90;;;;;;5060454;28;20434;-73
2021/11/16 22:38:01;;;;;;;18.00;16.70;;;8.20;99.90;;;;;;5061564;28;20446;-73
2021/11/16 22:40:28;;;;;;;17.30;15.80;;;8.20;99.90;;;;;;5062141;28;20444;-73
2021/11/16 22:42:54;;;;;;;18.13;16.73;;;8.20;99.90;;;;;;5060531;28;20444;-73
2021/11/16 22:45:24;;;;;;;18.67;16.97;;;8.20;99.90;;;;;;5061264;28;20479;-72
2021/11/16 22:47:52;;;;;;;17.47;16.17;;;8.30;99.90;;;;;;5062147;28;20500;-72
2021/11/16 22:50:20;;;;;;;16.97;15.70;;;8.30;99.90;;;;;;5060699;28;20807;-73
2021/11/16 22:52:48;;;;;;;17.23;15.93;;;8.20;99.90;;;;;;5060461;28;20478;-71
2021/11/16 22:55:17;;;;;;;19.30;17.77;;;8.20;99.90;;;;;;5051339;28;20436;-73
2021/11/16 22:57:45;;;;;;;18.77;17.03;;;8.10;99.90;;;;;;5051380;28;20451;-74
